Oak Ridge, Tennessee
Current Conditions -  °F | °C
As of 4:53 PM on Friday 19 Dec 2014 (Local Time) from KOQT Reporting Station
Clear Clear  
Wind Chill: 43°   Ceiling: Unl
Heat Index: 45°   Visibility: 10mi
Dew Point: 24°   Wind: 5mph
Humidity: 44%   Direction: 70°ENE
Pressure: 30.19"   Gusts: NA
Location:  36.01°N, 84.25°W
Report Text: KOQT 192153Z AUTO 07004KT 10SM CLR 07/M04 A3019 RMK AO2 SLP233 T00721044
Loading
Personal Weather Stations






























Interactive Weather Map New forecast layout! Learn more

10-Day Weather Forecast

Advertisements
Track Severe Weather on mobile